sensor_id;sensor_type;location;lat;lon;timestamp;pressure;altitude;pressure_sealevel;temperature;humidity
28310;BME280;15571;50.974;13.936;2023-04-07T00:02:55;100416.16;;;2.88;100.00
28310;BME280;15571;50.974;13.936;2023-04-07T00:06:00;100414.28;;;2.84;100.00
28310;BME280;15571;50.974;13.936;2023-04-07T00:09:04;100411.69;;;2.83;100.00
28310;BME280;15571;50.974;13.936;2023-04-07T00:12:08;100403.88;;;2.81;100.00
28310;BME280;15571;50.974;13.936;2023-04-07T00:15:11;100413.41;;;2.82;100.00
28310;BME280;15571;50.974;13.936;2023-04-07T00:18:19;100406.47;;;2.81;100.00
28310;BME280;15571;50.974;13.936;2023-04-07T00:21:21;100406.38;;;2.78;100.00
28310;BME280;15571;50.974;13.936;2023-04-07T00:24:31;100410.53;;;2.73;100.00
28310;BME280;15571;50.974;13.936;2023-04-07T00:27:35;100408.69;;;2.69;100.00
28310;BME280;15571;50.974;13.936;2023-04-07T00:30:41;100406.91;;;2.66;100.00
28310;BME280;15571;50.974;13.936;2023-04-07T00:33:45;100411.03;;;2.61;100.00
28310;BME280;15571;50.974;13.936;2023-04-07T00:36:53;100406.66;;;2.58;100.00
28310;BME280;15571;50.974;13.936;2023-04-07T00:39:57;100401.38;;;2.55;100.00
28310;BME280;15571;50.974;13.936;2023-04-07T00:43:01;100402.19;;;2.53;100.00
28310;BME280;15571;50.974;13.936;2023-04-07T00:46:10;100392.75;;;2.53;100.00
28310;BME280;15571;50.974;13.936;2023-04-07T00:49:17;100388.25;;;2.47;100.00
28310;BME280;15571;50.974;13.936;2023-04-07T00:52:21;100388.16;;;2.44;100.00
28310;BME280;15571;50.974;13.936;2023-04-07T00:55:32;100391.53;;;2.42;100.00
28310;BME280;15571;50.974;13.936;2023-04-07T00:58:36;100387.19;;;2.41;100.00
28310;BME280;15571;50.974;13.936;2023-04-07T01:01:39;100390.47;;;2.35;100.00
28310;BME280;15571;50.974;13.936;2023-04-07T01:04:53;100379.28;;;2.35;100.00
28310;BME280;15571;50.974;13.936;2023-04-07T01:08:03;100384.38;;;2.33;100.00
28310;BME280;15571;50.974;13.936;2023-04-07T01:11:16;100372.34;;;2.33;100.00
28310;BME280;15571;50.974;13.936;2023-04-07T01:14:22;100366.28;;;2.33;100.00
28310;BME280;15571;50.974;13.936;2023-04-07T01:17:36;100373.25;;;2.36;100.00
28310;BME280;15571;50.974;13.936;2023-04-07T01:20:42;100364.59;;;2.33;100.00
28310;BME280;15571;50.974;13.936;2023-04-07T01:23:51;100363.81;;;2.36;100.00
28310;BME280;15571;50.974;13.936;2023-04-07T01:27:09;100357.69;;;2.32;100.00
28310;BME280;15571;50.974;13.936;2023-04-07T01:30:17;100359.22;;;2.27;100.00
28310;BME280;15571;50.974;13.936;2023-04-07T01:33:19;100353.09;;;2.24;100.00
28310;BME280;15571;50.974;13.936;2023-04-07T01:36:21;100351.34;;;2.23;100.00
28310;BME280;15571;50.974;13.936;2023-04-07T01:39:26;100349.53;;;2.20;100.00
28310;BME280;15571;50.974;13.936;2023-04-07T01:42:28;100353.84;;;2.20;100.00
28310;BME280;15571;50.974;13.936;2023-04-07T01:45:39;100349.50;;;2.18;100.00
28310;BME280;15571;50.974;13.936;2023-04-07T01:48:42;100349.44;;;2.17;100.00
28310;BME280;15571;50.974;13.936;2023-04-07T01:51:45;100353.72;;;2.15;100.00
28310;BME280;15571;50.974;13.936;2023-04-07T01:54:52;100352.72;;;2.11;100.00
28310;BME280;15571;50.974;13.936;2023-04-07T01:57:55;100349.13;;;2.06;100.00
28310;BME280;15571;50.974;13.936;2023-04-07T02:01:00;100350.78;;;2.04;100.00
28310;BME280;15571;50.974;13.936;2023-04-07T02:04:05;100354.16;;;2.01;100.00
28310;BME280;15571;50.974;13.936;2023-04-07T02:07:13;100347.19;;;1.99;100.00
28310;BME280;15571;50.974;13.936;2023-04-07T02:10:21;100353.06;;;1.95;100.00
28310;BME280;15571;50.974;13.936;2023-04-07T02:13:26;100346.97;;;1.93;100.00
28310;BME280;15571;50.974;13.936;2023-04-07T02:16:31;100347.75;;;1.90;100.00
28310;BME280;15571;50.974;13.936;2023-04-07T02:19:35;100347.66;;;1.87;100.00
28310;BME280;15571;50.974;13.936;2023-04-07T02:22:38;100344.16;;;1.85;100.00
28310;BME280;15571;50.974;13.936;2023-04-07T02:25:45;100344.06;;;1.82;100.00
28310;BME280;15571;50.974;13.936;2023-04-07T02:28:49;100341.44;;;1.80;100.00
28310;BME280;15571;50.974;13.936;2023-04-07T02:31:53;100341.44;;;1.80;100.00
28310;BME280;15571;50.974;13.936;2023-04-07T02:34:57;100335.28;;;1.77;100.00
28310;BME280;15571;50.974;13.936;2023-04-07T02:38:01;100334.38;;;1.75;100.00
28310;BME280;15571;50.974;13.936;2023-04-07T02:41:06;100334.16;;;1.68;100.00
28310;BME280;15571;50.974;13.936;2023-04-07T02:44:15;100339.25;;;1.65;100.00
28310;BME280;15571;50.974;13.936;2023-04-07T02:47:21;100336.56;;;1.62;100.00
28310;BME280;15571;50.974;13.936;2023-04-07T02:50:23;100329.63;;;1.61;100.00
28310;BME280;15571;50.974;13.936;2023-04-07T02:53:30;100331.28;;;1.59;100.00
28310;BME280;15571;50.974;13.936;2023-04-07T02:56:33;100322.59;;;1.57;100.00
28310;BME280;15571;50.974;13.936;2023-04-07T02:59:42;100330.34;;;1.57;100.00
28310;BME280;15571;50.974;13.936;2023-04-07T03:02:48;100321.75;;;1.57;100.00
28310;BME280;15571;50.974;13.936;2023-04-07T03:05:51;100325.19;;;1.57;100.00
28310;BME280;15571;50.974;13.936;2023-04-07T03:08:53;100320.03;;;1.57;100.00
28310;BME280;15571;50.974;13.936;2023-04-07T03:11:56;100316.47;;;1.53;100.00
28310;BME280;15571;50.974;13.936;2023-04-07T03:15:05;100311.25;;;1.50;100.00
28310;BME280;15571;50.974;13.936;2023-04-07T03:18:12;100306.06;;;1.50;100.00
28310;BME280;15571;50.974;13.936;2023-04-07T03:21:22;100308.59;;;1.49;100.00
28310;BME280;15571;50.974;13.936;2023-04-07T03:24:28;100299.94;;;1.47;100.00
28310;BME280;15571;50.974;13.936;2023-04-07T03:27:31;100299.75;;;1.42;100.00
28310;BME280;15571;50.974;13.936;2023-04-07T03:30:35;100305.84;;;1.44;100.00
28310;BME280;15571;50.974;13.936;2023-04-07T03:33:46;100303.34;;;1.46;100.00
28310;BME280;15571;50.974;13.936;2023-04-07T03:36:55;100305.94;;;1.46;100.00
28310;BME280;15571;50.974;13.936;2023-04-07T03:39:58;100303.25;;;1.43;100.00
28310;BME280;15571;50.974;13.936;2023-04-07T03:43:09;100304.09;;;1.43;100.00
28310;BME280;15571;50.974;13.936;2023-04-07T03:46:14;100308.41;;;1.43;100.00
28310;BME280;15571;50.974;13.936;2023-04-07T03:49:20;100304.09;;;1.43;100.00
28310;BME280;15571;50.974;13.936;2023-04-07T03:52:24;100296.31;;;1.42;100.00
28310;BME280;15571;50.974;13.936;2023-04-07T03:55:34;100296.31;;;1.42;100.00
28310;BME280;15571;50.974;13.936;2023-04-07T03:58:47;100304.16;;;1.45;100.00
28310;BME280;15571;50.974;13.936;2023-04-07T04:02:02;100293.78;;;1.43;100.00
28310;BME280;15571;50.974;13.936;2023-04-07T04:05:10;100306.63;;;1.42;100.00
28310;BME280;15571;50.974;13.936;2023-04-07T04:08:14;100301.44;;;1.40;100.00
28310;BME280;15571;50.974;13.936;2023-04-07T04:11:16;100300.53;;;1.39;100.00
28310;BME280;15571;50.974;13.936;2023-04-07T04:14:31;100303.13;;;1.39;100.00
28310;BME280;15571;50.974;13.936;2023-04-07T04:17:35;100304.78;;;1.37;100.00
28310;BME280;15571;50.974;13.936;2023-04-07T04:20:44;100309.03;;;1.35;100.00
28310;BME280;15571;50.974;13.936;2023-04-07T04:23:50;100320.06;;;1.31;100.00
28310;BME280;15571;50.974;13.936;2023-04-07T04:26:54;100316.53;;;1.29;100.00
28310;BME280;15571;50.974;13.936;2023-04-07T04:29:56;100311.31;;;1.26;100.00
28310;BME280;15571;50.974;13.936;2023-04-07T04:33:12;100317.28;;;1.25;100.00
28310;BME280;15571;50.974;13.936;2023-04-07T04:36:27;100314.69;;;1.25;100.00
28310;BME280;15571;50.974;13.936;2023-04-07T04:39:36;100317.28;;;1.25;100.00
28310;BME280;15571;50.974;13.936;2023-04-07T04:42:41;100313.75;;;1.23;100.00
28310;BME280;15571;50.974;13.936;2023-04-07T04:45:47;100307.66;;;1.21;100.00
28310;BME280;15571;50.974;13.936;2023-04-07T04:48:55;100311.84;;;1.17;100.00
28310;BME280;15571;50.974;13.936;2023-04-07T04:52:01;100304.06;;;1.16;100.00
28310;BME280;15571;50.974;13.936;2023-04-07T04:55:09;100307.53;;;1.16;100.00
28310;BME280;15571;50.974;13.936;2023-04-07T04:58:17;100312.72;;;1.18;100.00
28310;BME280;15571;50.974;13.936;2023-04-07T05:01:25;100308.50;;;1.20;100.00
28310;BME280;15571;50.974;13.936;2023-04-07T05:04:42;100308.44;;;1.18;100.00
28310;BME280;15571;50.974;13.936;2023-04-07T05:07:56;100313.56;;;1.17;100.00
28310;BME280;15571;50.974;13.936;2023-04-07T05:11:05;100300.69;;;1.17;100.00
28310;BME280;15571;50.974;13.936;2023-04-07T05:14:14;100306.59;;;1.14;100.00
28310;BME280;15571;50.974;13.936;2023-04-07T05:17:25;100302.19;;;1.12;100.00
28310;BME280;15571;50.974;13.936;2023-04-07T05:20:32;100309.81;;;1.08;100.00
28310;BME280;15571;50.974;13.936;2023-04-07T05:23:43;100305.53;;;1.07;100.00
28310;BME280;15571;50.974;13.936;2023-04-07T05:26:51;100301.28;;;1.09;100.00
28310;BME280;15571;50.974;13.936;2023-04-07T05:29:55;100298.81;;;1.13;100.00
28310;BME280;15571;50.974;13.936;2023-04-07T05:33:03;100306.59;;;1.14;100.00
28310;BME280;15571;50.974;13.936;2023-04-07T05:36:15;100303.97;;;1.13;100.00
28310;BME280;15571;50.974;13.936;2023-04-07T05:39:20;100305.72;;;1.14;100.00
28310;BME280;15571;50.974;13.936;2023-04-07T05:42:26;100304.06;;;1.16;100.00
28310;BME280;15571;50.974;13.936;2023-04-07T05:45:41;100311.00;;;1.17;100.00
28310;BME280;15571;50.974;13.936;2023-04-07T05:48:43;100303.28;;;1.18;100.00
28310;BME280;15571;50.974;13.936;2023-04-07T05:51:50;100306.81;;;1.20;100.00
28310;BME280;15571;50.974;13.936;2023-04-07T05:54:58;100312.13;;;1.25;100.00
28310;BME280;15571;50.974;13.936;2023-04-07T05:58:03;100307.00;;;1.27;100.00
28310;BME280;15571;50.974;13.936;2023-04-07T06:01:09;100310.56;;;1.30;100.00
28310;BME280;15571;50.974;13.936;2023-04-07T06:04:13;100305.50;;;1.33;100.00
28310;BME280;15571;50.974;13.936;2023-04-07T06:07:20;100304.88;;;1.40;100.00
28310;BME280;15571;50.974;13.936;2023-04-07T06:10:30;100296.50;;;1.48;100.00
28310;BME280;15571;50.974;13.936;2023-04-07T06:13:32;100306.06;;;1.50;100.00
28310;BME280;15571;50.974;13.936;2023-04-07T06:16:34;100296.81;;;1.57;100.00
28310;BME280;15571;50.974;13.936;2023-04-07T06:19:40;100298.78;;;1.64;100.00
28310;BME280;15571;50.974;13.936;2023-04-07T06:22:44;100304.22;;;1.74;100.00
28310;BME280;15571;50.974;13.936;2023-04-07T06:25:49;100290.69;;;1.81;100.00
28310;BME280;15571;50.974;13.936;2023-04-07T06:28:52;100296.13;;;1.90;100.00
28310;BME280;15571;50.974;13.936;2023-04-07T06:31:55;100299.81;;;1.98;100.00
28310;BME280;15571;50.974;13.936;2023-04-07T06:34:57;100294.84;;;2.05;100.00
28310;BME280;15571;50.974;13.936;2023-04-07T06:38:04;100293.44;;;2.16;100.00
28310;BME280;15571;50.974;13.936;2023-04-07T06:41:13;100293.75;;;2.25;100.00
28310;BME280;15571;50.974;13.936;2023-04-07T06:44:20;100288.84;;;2.35;100.00
28310;BME280;15571;50.974;13.936;2023-04-07T06:47:25;100283.94;;;2.44;100.00
28310;BME280;15571;50.974;13.936;2023-04-07T06:50:30;100279.03;;;2.53;100.00
28310;BME280;15571;50.974;13.936;2023-04-07T06:53:37;100283.56;;;2.62;100.00
28310;BME280;15571;50.974;13.936;2023-04-07T06:56:45;100279.44;;;2.69;100.00
28310;BME280;15571;50.974;13.936;2023-04-07T06:59:54;100281.41;;;2.77;100.00
28310;BME280;15571;50.974;13.936;2023-04-07T07:02:57;100286.78;;;2.85;100.00
28310;BME280;15571;50.974;13.936;2023-04-07T07:06:00;100285.31;;;2.93;100.00
28310;BME280;15571;50.974;13.936;2023-04-07T07:09:06;100280.28;;;3.00;100.00
28310;BME280;15571;50.974;13.936;2023-04-07T07:12:09;100277.09;;;3.10;100.00
28310;BME280;15571;50.974;13.936;2023-04-07T07:15:16;100273.81;;;3.17;100.00
28310;BME280;15571;50.974;13.936;2023-04-07T07:18:23;100268.78;;;3.23;100.00
28310;BME280;15571;50.974;13.936;2023-04-07T07:21:28;100270.72;;;3.31;100.00
28310;BME280;15571;50.974;13.936;2023-04-07T07:24:32;100271.81;;;3.40;100.00
28310;BME280;15571;50.974;13.936;2023-04-07T07:27:48;100272.00;;;3.48;100.00
28310;BME280;15571;50.974;13.936;2023-04-07T07:30:54;100279.94;;;3.56;100.00
28310;BME280;15571;50.974;13.936;2023-04-07T07:33:56;100281.81;;;3.62;100.00
28310;BME280;15571;50.974;13.936;2023-04-07T07:37:01;100299.25;;;3.69;100.00
28310;BME280;15571;50.974;13.936;2023-04-07T07:40:06;100295.94;;;3.76;100.00
28310;BME280;15571;50.974;13.936;2023-04-07T07:43:13;100286.63;;;3.84;100.00
28310;BME280;15571;50.974;13.936;2023-04-07T07:46:17;100293.78;;;3.95;100.00
28310;BME280;15571;50.974;13.936;2023-04-07T07:49:24;100290.53;;;4.03;100.00
28310;BME280;15571;50.974;13.936;2023-04-07T07:52:34;100287.25;;;4.12;100.00
28310;BME280;15571;50.974;13.936;2023-04-07T07:55:37;100289.16;;;4.19;100.00
28310;BME280;15571;50.974;13.936;2023-04-07T07:58:46;100287.53;;;4.26;100.00
28310;BME280;15571;50.974;13.936;2023-04-07T08:01:48;100292.06;;;4.35;100.00
28310;BME280;15571;50.974;13.936;2023-04-07T08:04:59;100292.31;;;4.47;100.00
28310;BME280;15571;50.974;13.936;2023-04-07T08:08:03;100300.31;;;4.58;100.00
28310;BME280;15571;50.974;13.936;2023-04-07T08:11:07;100295.28;;;4.67;100.00
28310;BME280;15571;50.974;13.936;2023-04-07T08:14:12;100302.47;;;4.79;100.00
28310;BME280;15571;50.974;13.936;2023-04-07T08:17:15;100297.47;;;4.90;100.00
28310;BME280;15571;50.974;13.936;2023-04-07T08:20:21;100300.25;;;5.01;100.00
28310;BME280;15571;50.974;13.936;2023-04-07T08:23:28;100304.75;;;5.11;100.00
28310;BME280;15571;50.974;13.936;2023-04-07T08:26:33;100303.19;;;5.20;100.00
28310;BME280;15571;50.974;13.936;2023-04-07T08:29:39;100296.41;;;5.28;100.00
28310;BME280;15571;50.974;13.936;2023-04-07T08:32:46;100298.28;;;5.35;100.00
28310;BME280;15571;50.974;13.936;2023-04-07T08:35:50;100291.47;;;5.43;100.00
28310;BME280;15571;50.974;13.936;2023-04-07T08:38:58;100286.38;;;5.50;100.00
28310;BME280;15571;50.974;13.936;2023-04-07T08:42:06;100295.13;;;5.55;100.00
28310;BME280;15571;50.974;13.936;2023-04-07T08:45:11;100296.13;;;5.63;100.00
28310;BME280;15571;50.974;13.936;2023-04-07T08:48:16;100294.50;;;5.71;100.00
28310;BME280;15571;50.974;13.936;2023-04-07T08:51:21;100295.50;;;5.80;100.00
28310;BME280;15571;50.974;13.936;2023-04-07T08:54:30;100291.25;;;5.85;100.00
28310;BME280;15571;50.974;13.936;2023-04-07T08:57:33;100288.78;;;5.92;100.00
28310;BME280;15571;50.974;13.936;2023-04-07T09:00:43;100281.91;;;5.98;100.00
28310;BME280;15571;50.974;13.936;2023-04-07T09:03:48;100276.81;;;6.01;100.00
28310;BME280;15571;50.974;13.936;2023-04-07T09:06:52;100292.59;;;6.16;100.00
28310;BME280;15571;50.974;13.936;2023-04-07T09:09:58;100281.47;;;6.25;100.00
28310;BME280;15571;50.974;13.936;2023-04-07T09:13:02;100279.81;;;6.33;100.00
28310;BME280;15571;50.974;13.936;2023-04-07T09:16:11;100276.50;;;6.44;100.00
28310;BME280;15571;50.974;13.936;2023-04-07T09:19:16;100280.06;;;6.53;100.00
28310;BME280;15571;50.974;13.936;2023-04-07T09:22:36;100271.47;;;6.59;100.00
28310;BME280;15571;50.974;13.936;2023-04-07T09:25:43;100274.16;;;6.68;100.00
28310;BME280;15571;50.974;13.936;2023-04-07T09:28:52;100277.69;;;6.74;100.00
28310;BME280;15571;50.974;13.936;2023-04-07T09:31:58;100276.84;;;6.75;100.00
28310;BME280;15571;50.974;13.936;2023-04-07T09:35:01;100269.97;;;6.80;100.00
28310;BME280;15571;50.974;13.936;2023-04-07T09:38:08;100257.03;;;6.91;100.00
28310;BME280;15571;50.974;13.936;2023-04-07T09:41:18;100259.72;;;6.95;100.00
28310;BME280;15571;50.974;13.936;2023-04-07T09:44:26;100251.91;;;6.97;100.00
28310;BME280;15571;50.974;13.936;2023-04-07T09:47:32;100247.59;;;6.99;96.96
28310;BME280;15571;50.974;13.936;2023-04-07T09:50:39;100252.81;;;7.00;92.96
28310;BME280;15571;50.974;13.936;2023-04-07T09:53:48;100251.06;;;6.99;85.56
28310;BME280;15571;50.974;13.936;2023-04-07T09:56:50;100261.56;;;7.10;84.92
28310;BME280;15571;50.974;13.936;2023-04-07T09:59:53;100253.75;;;7.07;76.18
28310;BME280;15571;50.974;13.936;2023-04-07T10:03:00;100247.72;;;7.13;74.26
28310;BME280;15571;50.974;13.936;2023-04-07T10:06:08;100261.72;;;7.27;74.91
28310;BME280;15571;50.974;13.936;2023-04-07T10:09:12;100268.69;;;7.30;72.59
28310;BME280;15571;50.974;13.936;2023-04-07T10:12:14;100264.47;;;7.43;71.15
28310;BME280;15571;50.974;13.936;2023-04-07T10:15:32;100255.84;;;7.50;68.61
28310;BME280;15571;50.974;13.936;2023-04-07T10:18:36;100264.59;;;7.57;69.47
28310;BME280;15571;50.974;13.936;2023-04-07T10:21:42;100264.63;;;7.63;62.27
28310;BME280;15571;50.974;13.936;2023-04-07T10:24:49;100256.88;;;7.71;61.74
28310;BME280;15571;50.974;13.936;2023-04-07T10:27:55;100255.19;;;7.79;64.81
28310;BME280;15571;50.974;13.936;2023-04-07T10:31:00;100260.34;;;7.76;58.88
28310;BME280;15571;50.974;13.936;2023-04-07T10:34:04;100251.75;;;7.83;58.43
28310;BME280;15571;50.974;13.936;2023-04-07T10:37:07;100256.97;;;7.89;57.53
28310;BME280;15571;50.974;13.936;2023-04-07T10:40:26;100245.75;;;8.00;61.62
28310;BME280;15571;50.974;13.936;2023-04-07T10:43:41;100251.84;;;8.05;58.76
28310;BME280;15571;50.974;13.936;2023-04-07T10:50:17;100258.84;;;8.15;58.71
28310;BME280;15571;50.974;13.936;2023-04-07T10:53:23;100256.31;;;8.26;59.77
28310;BME280;15571;50.974;13.936;2023-04-07T10:56:27;100256.28;;;8.29;58.77
28310;BME280;15571;50.974;13.936;2023-04-07T11:03:18;100258.06;;;8.32;57.64
28310;BME280;15571;50.974;13.936;2023-04-07T11:06:25;100251.09;;;8.34;58.17
28310;BME280;15571;50.974;13.936;2023-04-07T11:09:29;100245.06;;;8.44;59.64
28310;BME280;15571;50.974;13.936;2023-04-07T11:12:40;100244.25;;;8.51;61.31
28310;BME280;15571;50.974;13.936;2023-04-07T11:15:45;100247.75;;;8.56;61.70
28310;BME280;15571;50.974;13.936;2023-04-07T11:18:51;100251.25;;;8.63;60.69
28310;BME280;15571;50.974;13.936;2023-04-07T11:22:17;100244.28;;;8.61;59.42
28310;BME280;15571;50.974;13.936;2023-04-07T11:25:21;100243.44;;;8.74;60.48
28310;BME280;15571;50.974;13.936;2023-04-07T11:28:32;100238.22;;;8.74;57.67
28310;BME280;15571;50.974;13.936;2023-04-07T11:31:42;100243.41;;;8.65;56.24
28310;BME280;15571;50.974;13.936;2023-04-07T11:34:51;100244.31;;;8.75;58.33
28310;BME280;15571;50.974;13.936;2023-04-07T11:37:59;100232.16;;;8.83;57.90
28310;BME280;15571;50.974;13.936;2023-04-07T11:41:10;100241.72;;;8.92;59.16
28310;BME280;15571;50.974;13.936;2023-04-07T11:44:12;100239.13;;;8.92;59.27
28310;BME280;15571;50.974;13.936;2023-04-07T11:47:15;100233.03;;;9.02;59.45
28310;BME280;15571;50.974;13.936;2023-04-07T11:50:17;100234.78;;;9.06;60.43
28310;BME280;15571;50.974;13.936;2023-04-07T11:53:43;100233.94;;;9.12;59.89
28310;BME280;15571;50.974;13.936;2023-04-07T11:57:02;100228.72;;;9.19;60.78
28310;BME280;15571;50.974;13.936;2023-04-07T12:00:06;100232.19;;;9.22;60.84
28310;BME280;15571;50.974;13.936;2023-04-07T12:03:14;100222.63;;;9.30;58.71
28310;BME280;15571;50.974;13.936;2023-04-07T12:06:25;100226.97;;;9.32;59.06
28310;BME280;15571;50.974;13.936;2023-04-07T12:09:31;100229.59;;;9.37;59.40
28310;BME280;15571;50.974;13.936;2023-04-07T12:12:46;100237.44;;;9.32;57.03
28310;BME280;15571;50.974;13.936;2023-04-07T12:15:53;100233.06;;;9.24;52.67
28310;BME280;15571;50.974;13.936;2023-04-07T12:18:58;100234.81;;;9.25;53.38
28310;BME280;15571;50.974;13.936;2023-04-07T12:22:03;100233.94;;;9.30;53.85
28310;BME280;15571;50.974;13.936;2023-04-07T12:25:12;100242.63;;;9.22;51.98
28310;BME280;15571;50.974;13.936;2023-04-07T12:28:16;100237.41;;;9.12;50.88
28310;BME280;15571;50.974;13.936;2023-04-07T12:31:27;100238.28;;;9.14;52.27
28310;BME280;15571;50.974;13.936;2023-04-07T12:34:30;100237.41;;;9.08;51.67
28310;BME280;15571;50.974;13.936;2023-04-07T12:37:41;100238.25;;;9.02;53.59
28310;BME280;15571;50.974;13.936;2023-04-07T12:40:54;100240.03;;;9.09;55.07
28310;BME280;15571;50.974;13.936;2023-04-07T12:44:13;100235.69;;;9.17;56.27
28310;BME280;15571;50.974;13.936;2023-04-07T12:47:17;100238.28;;;9.22;56.58
28310;BME280;15571;50.974;13.936;2023-04-07T12:50:22;100240.03;;;9.28;56.77
28310;BME280;15571;50.974;13.936;2023-04-07T12:53:26;100232.19;;;9.35;57.44
28310;BME280;15571;50.974;13.936;2023-04-07T12:56:43;100227.81;;;9.42;57.43
28310;BME280;15571;50.974;13.936;2023-04-07T12:59:46;100227.81;;;9.47;58.13
28310;BME280;15571;50.974;13.936;2023-04-07T13:02:56;100227.81;;;9.55;58.20
28310;BME280;15571;50.974;13.936;2023-04-07T13:05:59;100240.91;;;9.58;56.83
28310;BME280;15571;50.974;13.936;2023-04-07T13:09:03;100233.06;;;9.45;57.02
28310;BME280;15571;50.974;13.936;2023-04-07T13:12:11;100229.59;;;9.49;58.50
28310;BME280;15571;50.974;13.936;2023-04-07T15:11:19;100199.94;;;9.57;64.26
28310;BME280;15571;50.974;13.936;2023-04-07T15:14:23;100204.31;;;9.47;63.34
28310;BME280;15571;50.974;13.936;2023-04-07T15:17:26;100201.69;;;9.50;65.12
28310;BME280;15571;50.974;13.936;2023-04-07T15:20:29;100194.72;;;9.44;64.25
28310;BME280;15571;50.974;13.936;2023-04-07T15:23:35;100194.75;;;9.47;65.57
28310;BME280;15571;50.974;13.936;2023-04-07T15:26:40;100200.84;;;9.39;64.27
28310;BME280;15571;50.974;13.936;2023-04-07T15:29:46;100204.34;;;9.30;64.68
28310;BME280;15571;50.974;13.936;2023-04-07T15:32:55;100194.75;;;9.26;65.32
28310;BME280;15571;50.974;13.936;2023-04-07T15:36:04;100203.47;;;9.28;65.77
28310;BME280;15571;50.974;13.936;2023-04-07T15:39:07;100198.25;;;9.28;66.87
28310;BME280;15571;50.974;13.936;2023-04-07T15:42:12;100200.84;;;9.23;68.65
28310;BME280;15571;50.974;13.936;2023-04-07T15:45:14;100206.06;;;9.20;67.44
28310;BME280;15571;50.974;13.936;2023-04-07T15:48:17;100206.94;;;9.13;66.72
28310;BME280;15571;50.974;13.936;2023-04-07T15:51:25;100205.22;;;9.10;67.28
28310;BME280;15571;50.974;13.936;2023-04-07T15:54:31;100211.28;;;9.01;65.97
28310;BME280;15571;50.974;13.936;2023-04-07T15:57:38;100202.59;;;8.98;66.79
28310;BME280;15571;50.974;13.936;2023-04-07T16:00:40;100213.03;;;8.95;67.33
28310;BME280;15571;50.974;13.936;2023-04-07T16:03:43;100212.16;;;8.93;66.18
28310;BME280;15571;50.974;13.936;2023-04-07T16:06:49;100213.00;;;8.81;66.20
28310;BME280;15571;50.974;13.936;2023-04-07T16:09:53;100220.84;;;8.79;67.40
28310;BME280;15571;50.974;13.936;2023-04-07T16:13:01;100222.56;;;8.74;69.90
28310;BME280;15571;50.974;13.936;2023-04-07T16:16:05;100232.09;;;8.67;73.79
28310;BME280;15571;50.974;13.936;2023-04-07T16:19:11;100233.00;;;8.62;76.30
28310;BME280;15571;50.974;13.936;2023-04-07T16:22:14;100238.19;;;8.59;77.20
28310;BME280;15571;50.974;13.936;2023-04-07T16:25:17;100239.03;;;8.54;79.87
28310;BME280;15571;50.974;13.936;2023-04-07T16:28:22;100234.69;;;8.50;82.40
28310;BME280;15571;50.974;13.936;2023-04-07T16:31:26;100239.03;;;8.50;82.89
28310;BME280;15571;50.974;13.936;2023-04-07T16:34:35;100239.00;;;8.47;85.77
28310;BME280;15571;50.974;13.936;2023-04-07T16:37:38;100241.59;;;8.42;87.47
28310;BME280;15571;50.974;13.936;2023-04-07T16:40:48;100243.31;;;8.37;88.34
28310;BME280;15571;50.974;13.936;2023-04-07T16:43:55;100241.56;;;8.36;88.95
28310;BME280;15571;50.974;13.936;2023-04-07T16:46:59;100252.81;;;8.30;90.18
28310;BME280;15571;50.974;13.936;2023-04-07T16:50:04;100258.06;;;8.29;91.34
28310;BME280;15571;50.974;13.936;2023-04-07T16:53:09;100264.09;;;8.23;92.58
28310;BME280;15571;50.974;13.936;2023-04-07T16:56:17;100257.16;;;8.20;92.27
28310;BME280;15571;50.974;13.936;2023-04-07T16:59:25;100270.13;;;8.08;92.45
28310;BME280;15571;50.974;13.936;2023-04-07T17:02:33;100270.06;;;7.99;91.04
28310;BME280;15571;50.974;13.936;2023-04-07T17:05:38;100276.97;;;7.90;92.73
28310;BME280;15571;50.974;13.936;2023-04-07T17:08:46;100283.88;;;7.85;93.95
28310;BME280;15571;50.974;13.936;2023-04-07T17:11:49;100283.00;;;7.83;91.87
28310;BME280;15571;50.974;13.936;2023-04-07T17:14:56;100287.28;;;7.75;91.77
28310;BME280;15571;50.974;13.936;2023-04-07T17:17:59;100289.88;;;7.72;90.93
28310;BME280;15571;50.974;13.936;2023-04-07T17:24:30;100301.97;;;7.63;92.70
28310;BME280;15571;50.974;13.936;2023-04-07T17:27:34;100310.66;;;7.62;92.67
28310;BME280;15571;50.974;13.936;2023-04-07T17:30:40;100304.56;;;7.62;93.59
28310;BME280;15571;50.974;13.936;2023-04-07T17:33:48;100308.88;;;7.60;94.32
28310;BME280;15571;50.974;13.936;2023-04-07T17:36:53;100310.63;;;7.59;95.18
28310;BME280;15571;50.974;13.936;2023-04-07T17:39:58;100314.13;;;7.61;95.76
28310;BME280;15571;50.974;13.936;2023-04-07T17:43:02;100316.72;;;7.61;97.86
28310;BME280;15571;50.974;13.936;2023-04-07T17:46:09;100321.94;;;7.61;100.00
28310;BME280;15571;50.974;13.936;2023-04-07T17:49:14;100323.66;;;7.61;99.88
28310;BME280;15571;50.974;13.936;2023-04-07T17:52:17;100326.28;;;7.62;100.00
28310;BME280;15571;50.974;13.936;2023-04-07T17:55:22;100334.97;;;7.61;100.00
28310;BME280;15571;50.974;13.936;2023-04-07T17:58:24;100343.63;;;7.60;100.00
28310;BME280;15571;50.974;13.936;2023-04-07T18:01:33;100341.00;;;7.56;100.00
28310;BME280;15571;50.974;13.936;2023-04-07T18:04:35;100347.06;;;7.53;100.00
28310;BME280;15571;50.974;13.936;2023-04-07T18:07:37;100345.31;;;7.52;100.00
28310;BME280;15571;50.974;13.936;2023-04-07T18:10:43;100350.50;;;7.52;100.00
28310;BME280;15571;50.974;13.936;2023-04-07T18:13:48;100349.63;;;7.48;100.00